createdAt,value
2023-02-02T00:01:24.826Z,2.03
2023-02-02T00:03:46.888Z,1.30
2023-02-02T00:06:08.750Z,1.53
2023-02-02T00:08:30.176Z,1.50
2023-02-02T00:10:51.681Z,1.17
2023-02-02T00:13:13.809Z,1.20
2023-02-02T00:15:35.469Z,1.00
2023-02-02T00:17:56.902Z,1.17
2023-02-02T00:20:18.436Z,1.10
2023-02-02T00:22:39.867Z,0.83
2023-02-02T00:25:01.576Z,1.10
2023-02-02T00:27:23.049Z,1.30
2023-02-02T00:29:45.619Z,1.30
2023-02-02T00:32:07.059Z,1.30
2023-02-02T00:34:28.526Z,1.40
2023-02-02T00:36:50.654Z,1.03
2023-02-02T00:39:16.616Z,1.00
2023-02-02T00:41:38.061Z,1.30
2023-02-02T00:44:18.322Z,1.30
2023-02-02T00:46:41.139Z,1.30
2023-02-02T00:49:02.590Z,1.40
2023-02-02T00:51:24.047Z,0.90
2023-02-02T00:53:45.506Z,1.27
2023-02-02T00:56:07.000Z,0.90
2023-02-02T00:58:28.452Z,1.20
2023-02-02T01:00:49.889Z,1.60
2023-02-02T01:03:13.296Z,1.30
2023-02-02T01:05:35.048Z,1.23
2023-02-02T01:07:56.960Z,0.93
2023-02-02T01:10:18.841Z,0.80
2023-02-02T01:12:40.846Z,1.00
2023-02-02T01:15:03.362Z,1.07
2023-02-02T01:17:24.827Z,1.00
2023-02-02T01:19:46.367Z,1.10
2023-02-02T01:22:08.657Z,1.03
2023-02-02T01:24:30.245Z,1.17
2023-02-02T01:26:51.771Z,0.90
2023-02-02T01:29:13.367Z,1.03
2023-02-02T01:31:34.961Z,0.77
2023-02-02T01:33:56.492Z,1.10
2023-02-02T01:36:23.392Z,1.20
2023-02-02T01:38:45.928Z,0.80
2023-02-02T01:41:07.853Z,0.93
2023-02-02T01:43:52.821Z,0.73
2023-02-02T01:46:23.274Z,1.20
2023-02-02T01:48:49.590Z,0.60
2023-02-02T01:51:15.916Z,0.70
2023-02-02T01:53:38.170Z,1.27
2023-02-02T01:56:01.525Z,0.70
2023-02-02T01:58:28.276Z,0.83
2023-02-02T02:00:49.898Z,0.70
2023-02-02T02:03:16.047Z,0.90
2023-02-02T02:05:50.735Z,0.90
2023-02-02T02:08:20.066Z,0.60
2023-02-02T02:10:41.532Z,0.90
2023-02-02T02:13:04.522Z,0.87
2023-02-02T02:15:49.407Z,0.87
2023-02-02T02:18:50.548Z,0.70
2023-02-02T02:22:07.929Z,1.00
2023-02-02T02:25:34.719Z,0.80
2023-02-02T02:28:07.979Z,0.80
2023-02-02T02:30:53.612Z,0.77
2023-02-02T02:33:47.478Z,1.03
2023-02-02T02:36:37.285Z,1.13
2023-02-02T02:39:20.251Z,1.20
2023-02-02T02:41:46.139Z,0.47
2023-02-02T02:44:12.364Z,0.90
2023-02-02T02:46:35.191Z,1.57
2023-02-02T02:48:58.424Z,0.80
2023-02-02T02:51:35.152Z,1.00
2023-02-02T02:53:56.769Z,0.83
2023-02-02T02:56:28.399Z,1.20
2023-02-02T02:59:01.188Z,1.37
2023-02-02T03:01:50.634Z,1.20
2023-02-02T03:04:36.391Z,1.10
2023-02-02T03:07:05.310Z,1.33
2023-02-02T03:09:34.878Z,1.17
2023-02-02T03:11:57.119Z,0.97
2023-02-02T03:14:18.702Z,1.10
2023-02-02T03:16:40.197Z,1.10
2023-02-02T03:19:01.836Z,1.10
2023-02-02T03:21:23.302Z,1.00
2023-02-02T03:23:44.755Z,1.00
2023-02-02T03:26:06.334Z,0.90
2023-02-02T03:28:28.320Z,1.10
2023-02-02T03:30:50.444Z,0.90
2023-02-02T03:33:14.131Z,1.37
2023-02-02T03:35:35.715Z,1.63
2023-02-02T03:37:57.190Z,0.73
2023-02-02T03:40:18.804Z,1.20
2023-02-02T03:42:40.297Z,1.20
2023-02-02T03:45:01.824Z,1.07
2023-02-02T03:47:23.524Z,1.07
2023-02-02T03:49:44.984Z,1.47
2023-02-02T03:52:06.489Z,1.30
2023-02-02T03:54:28.060Z,1.40
2023-02-02T03:56:49.499Z,1.07
2023-02-02T03:59:10.932Z,0.97
2023-02-02T04:01:32.451Z,1.43
2023-02-02T04:03:53.934Z,1.47
2023-02-02T04:06:15.416Z,1.50
2023-02-02T04:08:36.919Z,1.00
2023-02-02T04:10:58.381Z,1.40
2023-02-02T04:13:20.021Z,1.30
2023-02-02T04:15:41.603Z,1.60
2023-02-02T04:18:03.050Z,1.57
2023-02-02T04:20:24.587Z,1.20
2023-02-02T04:22:46.031Z,1.27
2023-02-02T04:25:07.858Z,1.43
2023-02-02T04:27:32.586Z,1.00
2023-02-02T04:29:54.029Z,1.50
2023-02-02T04:32:16.991Z,1.30
2023-02-02T04:34:38.420Z,1.00
2023-02-02T04:36:59.827Z,1.40
2023-02-02T04:39:21.301Z,1.50
2023-02-02T04:41:42.732Z,1.40
2023-02-02T04:44:06.697Z,1.93
2023-02-02T04:46:29.806Z,1.47
2023-02-02T04:48:51.329Z,1.33
2023-02-02T04:51:14.325Z,2.07
2023-02-02T04:53:36.020Z,1.50
2023-02-02T04:55:57.504Z,1.57
2023-02-02T04:58:19.506Z,1.50
2023-02-02T05:00:40.999Z,1.50
2023-02-02T05:03:02.522Z,1.50
2023-02-02T05:05:24.254Z,1.30
2023-02-02T05:07:46.221Z,2.13
2023-02-02T05:10:09.708Z,1.40
2023-02-02T05:12:31.132Z,1.50
2023-02-02T05:14:52.624Z,1.47
2023-02-02T05:17:14.118Z,1.50
2023-02-02T05:19:35.582Z,1.67
2023-02-02T05:21:57.164Z,1.40
2023-02-02T05:24:18.610Z,1.60
2023-02-02T05:26:40.219Z,1.80
2023-02-02T05:29:01.778Z,1.40
2023-02-02T05:31:23.458Z,1.60
2023-02-02T05:33:45.000Z,1.80
2023-02-02T05:36:07.497Z,2.20
2023-02-02T05:38:28.970Z,1.67
2023-02-02T05:40:50.404Z,1.50
2023-02-02T05:43:11.854Z,1.80
2023-02-02T05:45:33.318Z,2.00
2023-02-02T05:47:55.821Z,1.57
2023-02-02T05:50:17.416Z,1.70
2023-02-02T05:52:41.339Z,2.00
2023-02-02T05:55:02.987Z,1.70
2023-02-02T05:57:24.408Z,2.07
2023-02-02T05:59:47.242Z,1.90
2023-02-02T06:02:08.888Z,2.20
2023-02-02T06:04:30.440Z,2.30
2023-02-02T06:06:51.897Z,2.20
2023-02-02T06:09:13.648Z,2.37
2023-02-02T06:11:35.144Z,2.17
2023-02-02T06:13:56.829Z,1.90
2023-02-02T06:16:18.358Z,2.47
2023-02-02T06:18:39.959Z,2.07
2023-02-02T06:21:03.534Z,2.20
2023-02-02T06:23:25.392Z,1.93
2023-02-02T06:25:46.842Z,2.10
2023-02-02T06:28:08.443Z,1.70
2023-02-02T06:30:29.902Z,1.90
2023-02-02T06:32:51.401Z,1.93
2023-02-02T06:35:12.844Z,2.17
2023-02-02T06:37:34.305Z,2.30
2023-02-02T06:39:55.730Z,2.47
2023-02-02T06:42:21.700Z,2.40
2023-02-02T06:44:43.475Z,2.30
2023-02-02T06:47:04.960Z,2.30
2023-02-02T06:49:26.407Z,2.37
2023-02-02T06:51:48.614Z,2.77
2023-02-02T06:54:10.084Z,2.27
2023-02-02T06:56:31.580Z,1.70
2023-02-02T06:58:52.998Z,2.40
2023-02-02T07:01:14.966Z,2.40
2023-02-02T07:03:37.198Z,2.17
2023-02-02T07:05:58.747Z,2.47
2023-02-02T07:08:20.207Z,2.73
2023-02-02T07:11:14.157Z,2.30
2023-02-02T07:13:24.431Z,5.80
2023-02-02T07:15:45.917Z,2.60
2023-02-02T07:18:07.402Z,2.67
2023-02-02T07:20:28.989Z,2.40
2023-02-02T07:22:50.542Z,2.03
2023-02-02T07:25:12.048Z,2.30
2023-02-02T07:27:33.612Z,2.20
2023-02-02T07:29:55.066Z,2.27
2023-02-02T07:32:16.497Z,1.97
2023-02-02T07:34:39.232Z,1.77
2023-02-02T07:37:00.697Z,1.90
2023-02-02T07:39:22.112Z,2.00
2023-02-02T07:41:43.927Z,1.83
2023-02-02T07:44:06.056Z,1.80
2023-02-02T07:46:27.621Z,2.03
2023-02-02T07:48:49.293Z,1.80
2023-02-02T07:51:16.189Z,1.87
2023-02-02T07:53:37.729Z,2.27
2023-02-02T07:56:10.459Z,3.07
2023-02-02T07:58:31.875Z,5.33
2023-02-02T08:00:53.436Z,5.57
2023-02-02T08:03:14.931Z,6.20
2023-02-02T08:05:36.493Z,5.87
2023-02-02T08:07:57.932Z,5.80
2023-02-02T08:10:19.541Z,4.73
2023-02-02T08:12:40.949Z,5.00
2023-02-02T08:15:02.402Z,5.83
2023-02-02T08:17:23.896Z,2.93
2023-02-02T08:19:45.357Z,2.67
2023-02-02T08:22:06.958Z,2.17
2023-02-02T08:24:28.452Z,2.80
2023-02-02T08:26:50.050Z,3.00
2023-02-02T08:29:12.395Z,3.27
2023-02-02T08:31:36.733Z,1.70
2023-02-02T08:33:58.713Z,1.20
2023-02-02T08:36:22.466Z,0.70
2023-02-02T08:38:44.297Z,1.30
2023-02-02T08:41:07.315Z,4.47
2023-02-02T08:43:29.089Z,3.53
2023-02-02T08:46:02.151Z,1.73
2023-02-02T08:48:26.160Z,1.70
2023-02-02T08:50:55.202Z,1.40
2023-02-02T08:53:16.648Z,1.07
2023-02-02T08:55:38.090Z,1.00
2023-02-02T08:57:59.517Z,0.80
2023-02-02T09:00:21.229Z,0.77
2023-02-02T09:02:42.678Z,1.70
2023-02-02T09:05:04.228Z,1.50
2023-02-02T09:07:25.652Z,1.47
2023-02-02T09:09:47.078Z,1.20
2023-02-02T09:12:08.517Z,1.60
2023-02-02T09:14:29.975Z,1.90
2023-02-02T09:16:51.444Z,2.40
2023-02-02T09:19:12.959Z,4.70
2023-02-02T09:21:37.376Z,14.13
2023-02-02T09:23:59.054Z,9.90
2023-02-02T09:26:26.919Z,14.73
2023-02-02T09:28:52.336Z,6.20
2023-02-02T09:31:14.798Z,4.90
2023-02-02T09:33:36.896Z,5.90
2023-02-02T09:36:05.241Z,6.90
2023-02-02T09:38:26.680Z,10.57
2023-02-02T09:40:48.135Z,9.20
2023-02-02T09:43:31.162Z,11.90
2023-02-02T09:46:09.026Z,10.40
2023-02-02T09:48:58.909Z,43.50
2023-02-02T09:51:25.144Z,37.13
2023-02-02T09:54:02.828Z,17.23
2023-02-02T09:56:35.643Z,17.53
2023-02-02T09:59:13.654Z,9.47
2023-02-02T10:01:44.917Z,8.20
2023-02-02T10:04:29.755Z,48.47
2023-02-02T10:06:54.088Z,22.80
2023-02-02T10:09:37.400Z,9.50
2023-02-02T10:12:23.622Z,2.93
2023-02-02T10:15:00.661Z,3.90
2023-02-02T10:17:39.127Z,7.03
2023-02-02T10:20:17.492Z,5.73
2023-02-02T10:22:39.948Z,6.07
2023-02-02T10:25:01.390Z,3.43
2023-02-02T10:27:38.770Z,3.73
2023-02-02T10:30:01.977Z,2.27
2023-02-02T10:32:27.463Z,2.03
2023-02-02T10:35:11.107Z,6.13
2023-02-02T10:37:37.984Z,2.90
2023-02-02T10:40:05.440Z,2.30
2023-02-02T10:43:09.244Z,1.70
2023-02-02T10:45:31.133Z,2.00
2023-02-02T10:47:52.626Z,2.80
2023-02-02T10:50:14.041Z,3.00
2023-02-02T10:52:36.940Z,5.63
2023-02-02T10:55:18.260Z,4.33
2023-02-02T10:58:02.058Z,3.90
2023-02-02T11:00:51.366Z,3.30
2023-02-02T11:03:15.578Z,3.77
2023-02-02T11:05:55.759Z,3.60
2023-02-02T11:08:20.922Z,4.67
2023-02-02T11:10:44.785Z,3.00
2023-02-02T11:13:11.498Z,3.17
2023-02-02T11:15:32.955Z,2.90
2023-02-02T11:17:54.933Z,3.50
2023-02-02T11:20:35.455Z,3.47
2023-02-02T11:23:05.071Z,3.30
2023-02-02T11:25:32.727Z,4.23
2023-02-02T11:27:54.217Z,3.60
2023-02-02T11:30:28.658Z,2.80
2023-02-02T11:32:50.864Z,3.70
2023-02-02T11:35:22.268Z,3.07
2023-02-02T11:38:14.473Z,3.40
2023-02-02T11:40:38.719Z,4.13
2023-02-02T11:43:04.129Z,4.03
2023-02-02T11:45:34.697Z,3.47
2023-02-02T11:48:01.802Z,3.83
2023-02-02T11:50:27.665Z,3.07
2023-02-02T11:52:49.427Z,3.23
2023-02-02T11:55:17.953Z,3.23
2023-02-02T11:57:39.405Z,3.23
2023-02-02T12:00:09.879Z,1.90
2023-02-02T12:02:32.656Z,2.43
2023-02-02T12:05:12.043Z,3.00
2023-02-02T12:07:33.749Z,3.07
2023-02-02T12:10:01.698Z,10.00
2023-02-02T12:12:35.211Z,4.27
2023-02-02T12:15:08.555Z,5.07
2023-02-02T12:17:40.545Z,4.20
2023-02-02T12:20:36.602Z,3.80
2023-02-02T12:23:13.253Z,3.87
2023-02-02T12:25:49.832Z,4.00
2023-02-02T12:28:33.171Z,3.90
2023-02-02T12:31:00.186Z,2.20
2023-02-02T12:34:06.524Z,3.37
2023-02-02T12:36:49.643Z,4.20
2023-02-02T12:39:45.502Z,3.53
2023-02-02T12:42:12.930Z,2.53
2023-02-02T12:44:57.335Z,2.90
2023-02-02T12:47:21.638Z,2.07
2023-02-02T12:50:23.648Z,2.20
2023-02-02T12:52:50.929Z,2.13
2023-02-02T12:55:24.346Z,17.80
2023-02-02T12:58:00.764Z,11.10
2023-02-02T13:00:40.792Z,2.10
2023-02-02T13:03:29.564Z,1.40
2023-02-02T13:06:35.615Z,1.90
2023-02-02T13:09:19.907Z,3.30
2023-02-02T13:12:06.976Z,1.50
2023-02-02T13:14:33.455Z,1.90
2023-02-02T13:17:02.544Z,1.50
2023-02-02T13:19:32.965Z,2.07
2023-02-02T13:21:58.048Z,2.10
2023-02-02T13:24:27.552Z,2.33
2023-02-02T13:26:49.549Z,1.57
2023-02-02T13:29:10.973Z,1.80
2023-02-02T13:31:55.089Z,1.70
2023-02-02T13:34:24.426Z,2.00
2023-02-02T13:37:17.244Z,1.47
2023-02-02T13:39:45.038Z,1.07
2023-02-02T13:42:16.965Z,1.00
2023-02-02T13:44:42.481Z,1.03
2023-02-02T13:47:16.940Z,1.00
2023-02-02T13:49:44.281Z,1.07
2023-02-02T13:52:32.078Z,1.20
2023-02-02T13:55:18.661Z,1.40
2023-02-02T13:57:59.283Z,1.30
2023-02-02T14:00:25.270Z,1.60
2023-02-02T14:02:51.372Z,2.23
2023-02-02T14:05:22.061Z,3.00
2023-02-02T14:07:46.972Z,1.70
2023-02-02T14:10:26.815Z,1.53
2023-02-02T14:12:48.624Z,1.60
2023-02-02T14:15:13.312Z,1.50
2023-02-02T14:17:34.692Z,7.23
2023-02-02T14:20:04.247Z,12.73
2023-02-02T14:22:41.663Z,14.90
2023-02-02T14:25:24.227Z,14.87
2023-02-02T14:27:56.629Z,15.30
2023-02-02T14:30:25.111Z,12.37
2023-02-02T14:32:46.891Z,13.43
2023-02-02T14:35:08.260Z,19.33
2023-02-02T14:37:39.090Z,18.20
2023-02-02T14:40:06.659Z,17.37
2023-02-02T14:42:53.159Z,13.83
2023-02-02T14:45:31.360Z,26.87
2023-02-02T14:47:55.790Z,20.20
2023-02-02T14:50:37.472Z,20.37
2023-02-02T14:53:07.522Z,23.23
2023-02-02T14:55:29.517Z,23.27
2023-02-02T14:58:00.692Z,22.90
2023-02-02T15:00:28.954Z,47.70
2023-02-02T15:02:53.803Z,16.17
2023-02-02T15:05:46.376Z,9.27
2023-02-02T15:08:22.282Z,14.77
2023-02-02T15:10:56.701Z,9.83
2023-02-02T15:13:20.926Z,15.43
2023-02-02T15:15:44.077Z,14.70
2023-02-02T15:18:17.074Z,11.83
2023-02-02T15:20:45.303Z,8.27
2023-02-02T15:23:24.637Z,6.47
2023-02-02T15:26:07.588Z,11.90
2023-02-02T15:28:48.975Z,12.17
2023-02-02T15:31:20.562Z,29.07
2023-02-02T15:33:44.851Z,25.33
2023-02-02T15:36:12.317Z,27.87
2023-02-02T15:38:37.854Z,14.07
2023-02-02T15:41:05.561Z,11.57
2023-02-02T15:43:27.868Z,5.47
2023-02-02T15:45:54.673Z,4.50
2023-02-02T15:48:29.709Z,4.20
2023-02-02T15:50:56.524Z,4.97
2023-02-02T15:53:20.690Z,7.33
2023-02-02T15:55:42.131Z,6.73
2023-02-02T15:58:03.943Z,8.50
2023-02-02T16:00:30.850Z,8.63
2023-02-02T16:03:04.963Z,9.50
2023-02-02T16:05:29.407Z,9.37
2023-02-02T16:08:03.700Z,9.07
2023-02-02T16:10:26.391Z,10.17
2023-02-02T16:12:48.683Z,9.40
2023-02-02T16:15:24.606Z,8.17
2023-02-02T16:18:10.731Z,7.37
2023-02-02T16:20:34.923Z,6.27
2023-02-02T16:23:01.880Z,4.90
2023-02-02T16:25:24.317Z,8.00
2023-02-02T16:27:48.695Z,4.77
2023-02-02T16:30:25.688Z,4.10
2023-02-02T16:32:47.486Z,11.50
2023-02-02T16:35:35.046Z,9.33
2023-02-02T16:38:22.332Z,8.20
2023-02-02T16:40:44.064Z,8.53
2023-02-02T16:43:20.358Z,6.77
2023-02-02T16:45:52.029Z,6.73
2023-02-02T16:48:26.822Z,3.27
2023-02-02T16:51:06.285Z,3.30
2023-02-02T16:53:28.876Z,5.30
2023-02-02T16:55:51.571Z,6.73
2023-02-02T16:58:18.672Z,6.73
2023-02-02T17:00:40.566Z,6.20
2023-02-02T17:03:10.478Z,3.50
2023-02-02T17:05:37.616Z,5.53
2023-02-02T17:08:05.639Z,7.40
2023-02-02T17:10:33.651Z,7.20
2023-02-02T17:12:55.084Z,5.40
2023-02-02T17:15:25.727Z,7.80
2023-02-02T17:17:48.978Z,4.60
2023-02-02T17:20:11.534Z,3.40
2023-02-02T17:22:37.883Z,2.93
2023-02-02T17:24:59.536Z,2.40
2023-02-02T17:27:23.781Z,3.07
2023-02-02T17:29:46.178Z,2.87
2023-02-02T17:32:09.221Z,2.43
2023-02-02T17:34:31.596Z,2.80
2023-02-02T17:36:54.204Z,3.63
2023-02-02T17:39:15.679Z,4.97
2023-02-02T17:41:37.893Z,3.83
2023-02-02T17:43:59.429Z,10.40
2023-02-02T17:46:20.884Z,12.20
2023-02-02T17:48:42.789Z,9.97
2023-02-02T17:51:07.095Z,9.87
2023-02-02T17:53:33.200Z,8.70
2023-02-02T17:55:54.878Z,4.97
2023-02-02T17:58:19.764Z,3.33
2023-02-02T18:00:42.081Z,3.60
2023-02-02T18:03:23.708Z,4.80
2023-02-02T18:05:45.308Z,5.70
2023-02-02T18:08:06.958Z,4.53
2023-02-02T18:10:30.285Z,5.30
2023-02-02T18:12:51.894Z,5.47
2023-02-02T18:15:14.646Z,5.63
2023-02-02T18:17:36.117Z,6.63
2023-02-02T18:19:57.800Z,7.53
2023-02-02T18:22:19.306Z,7.93
2023-02-02T18:24:41.182Z,12.03
2023-02-02T18:27:02.746Z,16.17
2023-02-02T18:29:24.223Z,11.70
2023-02-02T18:31:45.871Z,9.77
2023-02-02T18:34:07.410Z,10.80
2023-02-02T18:36:28.938Z,11.27
2023-02-02T18:38:51.585Z,10.67
2023-02-02T18:41:13.975Z,8.50
2023-02-02T18:43:35.459Z,9.37
2023-02-02T18:46:10.296Z,9.03
2023-02-02T18:48:32.194Z,9.03
2023-02-02T18:50:53.650Z,9.37
2023-02-02T18:53:17.790Z,10.10
2023-02-02T18:55:39.268Z,11.10
2023-02-02T18:58:01.103Z,10.77
2023-02-02T19:00:22.776Z,11.07
2023-02-02T19:02:44.219Z,11.83
2023-02-02T19:05:24.937Z,11.30
2023-02-02T19:07:55.798Z,10.40
2023-02-02T19:10:17.784Z,10.70
2023-02-02T19:12:39.325Z,9.20
2023-02-02T19:15:01.259Z,12.07
2023-02-02T19:17:27.987Z,16.73
2023-02-02T19:19:50.317Z,15.93
2023-02-02T19:22:23.961Z,12.77
2023-02-02T19:24:45.720Z,15.57
2023-02-02T19:27:19.785Z,13.80
2023-02-02T19:29:41.280Z,13.33
2023-02-02T19:32:12.488Z,15.10
2023-02-02T19:34:34.362Z,13.60
2023-02-02T19:36:55.812Z,15.03
2023-02-02T19:39:20.352Z,17.17
2023-02-02T19:41:43.214Z,20.17
2023-02-02T19:44:14.525Z,34.77
2023-02-02T19:46:42.825Z,29.07
2023-02-02T19:49:11.723Z,27.77
2023-02-02T19:51:48.615Z,22.50
2023-02-02T19:54:23.871Z,18.43
2023-02-02T19:56:45.326Z,20.07
2023-02-02T19:59:17.572Z,17.23
2023-02-02T20:01:40.512Z,14.73
2023-02-02T20:04:04.095Z,17.37
2023-02-02T20:06:30.601Z,16.93
2023-02-02T20:08:52.913Z,15.33
2023-02-02T20:11:32.178Z,14.87
2023-02-02T20:13:53.663Z,12.30
2023-02-02T20:16:20.224Z,11.93
2023-02-02T20:18:50.780Z,13.87
2023-02-02T20:21:24.082Z,24.63
2023-02-02T20:23:46.231Z,20.30
2023-02-02T20:26:19.786Z,20.43
2023-02-02T20:28:45.340Z,18.03
2023-02-02T20:31:09.407Z,18.33
2023-02-02T20:33:32.982Z,19.50
2023-02-02T20:35:54.651Z,20.23
2023-02-02T20:38:22.119Z,18.07
2023-02-02T20:40:43.710Z,17.43
2023-02-02T20:43:05.172Z,14.67
2023-02-02T20:45:26.923Z,15.03
2023-02-02T20:47:49.676Z,14.33
2023-02-02T20:50:12.411Z,13.67
2023-02-02T20:52:34.318Z,15.40
2023-02-02T20:54:55.747Z,14.30
2023-02-02T20:57:17.753Z,12.70
2023-02-02T20:59:39.490Z,12.27
2023-02-02T21:02:01.152Z,9.83
2023-02-02T21:04:22.682Z,9.03
2023-02-02T21:06:44.681Z,8.67
2023-02-02T21:09:07.881Z,7.27
2023-02-02T21:11:29.466Z,6.97
2023-02-02T21:13:51.042Z,6.23
2023-02-02T21:16:12.568Z,7.57
2023-02-02T21:18:33.984Z,5.40
2023-02-02T21:20:55.679Z,5.87
2023-02-02T21:23:18.186Z,6.33
2023-02-02T21:25:39.660Z,5.97
2023-02-02T21:28:01.178Z,6.50
2023-02-02T21:30:22.692Z,6.13
2023-02-02T21:32:44.259Z,6.47
2023-02-02T21:35:06.584Z,7.20
2023-02-02T21:37:28.043Z,7.07
2023-02-02T21:39:51.264Z,8.23
2023-02-02T21:42:15.740Z,9.03
2023-02-02T21:44:43.681Z,8.33
2023-02-02T21:47:29.839Z,7.63
2023-02-02T21:49:52.515Z,8.23
2023-02-02T21:52:17.035Z,7.73
2023-02-02T21:54:38.566Z,7.87
2023-02-02T21:57:05.567Z,8.00
2023-02-02T21:59:36.727Z,8.47
2023-02-02T22:01:58.232Z,8.80
2023-02-02T22:04:26.760Z,7.97
2023-02-02T22:06:54.105Z,9.53
2023-02-02T22:09:18.278Z,8.37
2023-02-02T22:11:59.589Z,8.63
2023-02-02T22:14:31.586Z,8.37
2023-02-02T22:16:57.379Z,7.57
2023-02-02T22:19:32.976Z,7.03
2023-02-02T22:22:19.693Z,6.13
2023-02-02T22:24:42.234Z,6.73
2023-02-02T22:27:03.703Z,5.00
2023-02-02T22:29:25.357Z,6.23
2023-02-02T22:31:47.909Z,5.90
2023-02-02T22:34:09.433Z,5.70
2023-02-02T22:36:30.905Z,6.17
2023-02-02T22:38:52.376Z,5.50
2023-02-02T22:41:13.937Z,6.07
2023-02-02T22:43:35.492Z,5.40
2023-02-02T22:45:57.070Z,5.30
2023-02-02T22:48:18.861Z,4.47
2023-02-02T22:50:40.661Z,5.47
2023-02-02T22:53:03.709Z,5.10
2023-02-02T22:55:25.515Z,4.90
2023-02-02T22:57:47.479Z,4.37
2023-02-02T23:00:36.154Z,4.47
2023-02-02T23:02:57.732Z,4.47
2023-02-02T23:05:20.619Z,4.93
2023-02-02T23:07:45.269Z,5.07
2023-02-02T23:10:07.884Z,4.20
2023-02-02T23:12:29.627Z,4.97
2023-02-02T23:14:51.272Z,5.27
2023-02-02T23:17:12.755Z,5.43
2023-02-02T23:19:34.195Z,5.30
2023-02-02T23:21:55.662Z,4.63
2023-02-02T23:24:17.093Z,5.03
2023-02-02T23:26:38.568Z,3.90
2023-02-02T23:29:00.827Z,5.70
2023-02-02T23:31:22.457Z,5.03
2023-02-02T23:33:44.149Z,5.33
2023-02-02T23:36:05.892Z,5.90
2023-02-02T23:38:27.381Z,5.80
2023-02-02T23:40:48.872Z,5.83
2023-02-02T23:43:10.424Z,5.60
2023-02-02T23:45:31.887Z,4.83
2023-02-02T23:47:53.422Z,5.47
2023-02-02T23:50:15.065Z,6.17
2023-02-02T23:52:37.107Z,6.03
2023-02-02T23:55:00.189Z,6.57
2023-02-02T23:57:21.730Z,7.17
2023-02-02T23:59:43.142Z,6.40
